createdAt,value
2019-03-19T00:02:09.251Z,1.62
2019-03-19T00:04:40.998Z,1.98
2019-03-19T00:07:12.819Z,1.72
2019-03-19T00:09:44.391Z,2.17
2019-03-19T00:12:16.294Z,2.67
2019-03-19T00:14:49.481Z,1.62
2019-03-19T00:17:21.052Z,1.65
2019-03-19T00:19:52.508Z,2.10
2019-03-19T00:22:25.790Z,2.22
2019-03-19T00:24:57.740Z,1.50
2019-03-19T00:27:29.565Z,2.15
2019-03-19T00:30:01.222Z,2.47
2019-03-19T00:32:32.920Z,1.98
2019-03-19T00:35:05.019Z,1.20
2019-03-19T00:37:36.900Z,1.65
2019-03-19T00:40:08.801Z,1.85
2019-03-19T00:42:40.270Z,1.60
2019-03-19T00:45:12.368Z,2.25
2019-03-19T00:47:43.755Z,1.72
2019-03-19T00:50:15.303Z,1.30
2019-03-19T00:52:46.986Z,1.67
2019-03-19T00:55:18.793Z,1.60
2019-03-19T00:57:50.176Z,1.50
2019-03-19T01:00:21.767Z,2.37
2019-03-19T01:02:53.609Z,1.98
2019-03-19T01:05:25.234Z,1.72
2019-03-19T01:07:56.753Z,1.90
2019-03-19T01:10:28.119Z,1.95
2019-03-19T01:12:59.682Z,1.27
2019-03-19T01:15:31.229Z,1.37
2019-03-19T01:18:02.927Z,1.25
2019-03-19T01:20:34.547Z,1.20
2019-03-19T01:23:06.066Z,1.25
2019-03-19T01:25:37.733Z,1.20
2019-03-19T01:28:09.167Z,1.92
2019-03-19T01:30:40.772Z,1.42
2019-03-19T01:33:12.471Z,1.47
2019-03-19T01:35:44.182Z,1.47
2019-03-19T01:38:16.631Z,1.30
2019-03-19T01:40:48.241Z,1.65
2019-03-19T01:43:20.280Z,1.55
2019-03-19T01:45:51.751Z,1.55
2019-03-19T01:48:23.214Z,1.60
2019-03-19T01:50:54.830Z,1.65
2019-03-19T01:53:26.200Z,1.17
2019-03-19T01:56:05.196Z,1.70
2019-03-19T01:58:30.514Z,1.47
2019-03-19T02:01:02.318Z,1.47
2019-03-19T02:03:33.808Z,1.37
2019-03-19T02:06:05.240Z,1.55
2019-03-19T02:08:36.759Z,1.22
2019-03-19T02:11:09.335Z,1.37
2019-03-19T02:13:40.969Z,1.00
2019-03-19T02:16:12.766Z,1.50
2019-03-19T02:18:44.600Z,1.17
2019-03-19T02:21:16.250Z,1.40
2019-03-19T02:23:47.797Z,1.20
2019-03-19T02:26:19.200Z,1.10
2019-03-19T02:28:51.107Z,1.00
2019-03-19T02:31:22.617Z,1.17
2019-03-19T02:33:55.961Z,1.27
2019-03-19T02:36:27.572Z,1.02
2019-03-19T02:38:59.039Z,0.90
2019-03-19T02:41:30.565Z,1.62
2019-03-19T02:44:02.166Z,1.32
2019-03-19T02:46:33.716Z,1.40
2019-03-19T02:49:05.131Z,1.15
2019-03-19T02:51:36.506Z,1.20
2019-03-19T02:54:08.893Z,1.22
2019-03-19T02:56:40.720Z,1.52
2019-03-19T02:59:12.328Z,1.30
2019-03-19T03:01:43.795Z,1.32
2019-03-19T03:04:15.562Z,1.07
2019-03-19T03:06:47.458Z,1.37
2019-03-19T03:09:19.304Z,1.27
2019-03-19T03:11:50.999Z,1.10
2019-03-19T03:14:22.367Z,1.50
2019-03-19T03:16:54.822Z,1.30
2019-03-19T03:19:27.380Z,1.55
2019-03-19T03:21:59.213Z,1.35
2019-03-19T03:24:30.890Z,1.40
2019-03-19T03:27:02.679Z,1.30
2019-03-19T03:29:34.211Z,1.30
2019-03-19T03:32:05.837Z,1.57
2019-03-19T03:34:37.238Z,1.35
2019-03-19T03:37:08.669Z,1.70
2019-03-19T03:39:40.169Z,1.17
2019-03-19T03:42:11.904Z,1.80
2019-03-19T03:44:43.699Z,1.40
2019-03-19T03:47:15.140Z,1.27
2019-03-19T03:49:46.858Z,1.60
2019-03-19T03:52:19.925Z,1.67
2019-03-19T03:54:51.708Z,1.70
2019-03-19T03:57:23.264Z,1.40
2019-03-19T03:59:54.633Z,1.40
2019-03-19T04:02:26.115Z,1.65
2019-03-19T04:04:57.690Z,1.60
2019-03-19T04:07:29.173Z,1.65
2019-03-19T04:10:00.923Z,1.65
2019-03-19T04:12:32.423Z,1.98
2019-03-19T04:15:04.149Z,1.65
2019-03-19T04:17:35.878Z,1.80
2019-03-19T04:20:07.621Z,1.77
2019-03-19T04:22:38.932Z,1.87
2019-03-19T04:25:11.040Z,1.90
2019-03-19T04:27:42.766Z,1.62
2019-03-19T04:30:14.432Z,2.35
2019-03-19T04:32:46.031Z,2.33
2019-03-19T04:35:17.931Z,1.77
2019-03-19T04:37:49.448Z,2.15
2019-03-19T04:40:21.116Z,1.90
2019-03-19T04:42:52.874Z,2.10
2019-03-19T04:45:24.657Z,1.77
2019-03-19T04:47:56.091Z,2.08
2019-03-19T04:50:27.724Z,2.37
2019-03-19T04:52:59.348Z,1.92
2019-03-19T04:55:31.234Z,2.10
2019-03-19T04:58:02.733Z,1.82
2019-03-19T05:00:34.204Z,1.65
2019-03-19T05:03:05.880Z,1.75
2019-03-19T05:05:37.571Z,2.90
2019-03-19T05:08:08.990Z,2.30
2019-03-19T05:10:40.576Z,2.00
2019-03-19T05:13:12.165Z,1.67
2019-03-19T05:15:43.600Z,2.10
2019-03-19T05:18:15.384Z,1.95
2019-03-19T05:20:47.151Z,2.02
2019-03-19T05:23:18.640Z,2.15
2019-03-19T05:25:50.225Z,2.05
2019-03-19T05:28:21.648Z,2.15
2019-03-19T05:30:53.325Z,2.95
2019-03-19T05:33:24.898Z,2.10
2019-03-19T05:35:56.227Z,2.87
2019-03-19T05:38:27.898Z,2.33
2019-03-19T05:40:59.241Z,3.37
2019-03-19T05:43:31.006Z,2.85
2019-03-19T05:46:02.593Z,3.05
2019-03-19T05:48:33.987Z,2.33
2019-03-19T05:51:05.775Z,2.47
2019-03-19T05:53:37.314Z,2.37
2019-03-19T05:56:08.824Z,2.55
2019-03-19T05:58:40.203Z,2.27
2019-03-19T06:01:11.838Z,2.52
2019-03-19T06:03:43.493Z,2.40
2019-03-19T06:06:14.884Z,2.37
2019-03-19T06:08:46.422Z,2.40
2019-03-19T06:11:17.950Z,1.85
2019-03-19T06:13:49.530Z,3.42
2019-03-19T06:16:21.265Z,2.83
2019-03-19T06:18:52.819Z,2.35
2019-03-19T06:21:24.639Z,3.75
2019-03-19T06:23:56.089Z,2.75
2019-03-19T06:26:27.678Z,2.85
2019-03-19T06:28:59.143Z,3.72
2019-03-19T06:31:30.759Z,3.17
2019-03-19T06:34:02.286Z,3.45
2019-03-19T06:36:34.007Z,2.70
2019-03-19T06:39:08.087Z,3.25
2019-03-19T06:41:40.099Z,2.98
2019-03-19T06:44:11.605Z,3.37
2019-03-19T06:46:43.322Z,3.30
2019-03-19T06:49:14.811Z,2.80
2019-03-19T06:51:46.472Z,3.55
2019-03-19T06:54:18.166Z,2.75
2019-03-19T06:56:49.638Z,3.05
2019-03-19T06:59:21.384Z,2.87
2019-03-19T07:01:53.164Z,3.20
2019-03-19T07:04:24.896Z,3.33
2019-03-19T07:06:56.581Z,3.25
2019-03-19T07:09:29.716Z,3.17
2019-03-19T07:12:01.717Z,3.62
2019-03-19T07:14:34.640Z,2.60
2019-03-19T07:17:06.328Z,2.77
2019-03-19T07:19:38.284Z,3.10
2019-03-19T07:22:09.839Z,3.30
2019-03-19T07:24:41.692Z,3.40
2019-03-19T07:27:13.177Z,3.85
2019-03-19T07:29:44.924Z,2.12
2019-03-19T07:32:16.427Z,3.27
2019-03-19T07:34:49.529Z,3.05
2019-03-19T07:37:21.221Z,2.62
2019-03-19T07:39:52.803Z,2.37
2019-03-19T07:42:24.379Z,2.15
2019-03-19T07:44:55.790Z,3.42
2019-03-19T07:47:27.315Z,2.05
2019-03-19T07:49:58.630Z,2.20
2019-03-19T07:52:30.999Z,2.20
2019-03-19T07:55:02.818Z,1.80
2019-03-19T07:57:34.748Z,2.08
2019-03-19T08:00:07.429Z,1.57
2019-03-19T08:02:39.134Z,2.17
2019-03-19T08:05:10.955Z,2.95
2019-03-19T08:07:42.669Z,2.17
2019-03-19T08:10:14.663Z,1.62
2019-03-19T08:12:46.542Z,1.55
2019-03-19T08:15:18.034Z,1.52
2019-03-19T08:17:49.672Z,6.58
2019-03-19T08:20:21.253Z,12.10
2019-03-19T08:22:52.814Z,15.00
2019-03-19T08:25:24.377Z,9.95
2019-03-19T08:27:55.761Z,15.75
2019-03-19T08:30:27.565Z,5.40
2019-03-19T08:32:59.089Z,3.77
2019-03-19T08:35:30.796Z,4.10
2019-03-19T08:38:02.435Z,2.90
2019-03-19T08:40:33.896Z,2.20
2019-03-19T08:43:05.775Z,2.87
2019-03-19T08:45:37.492Z,2.30
2019-03-19T08:48:09.848Z,2.60
2019-03-19T08:50:41.799Z,2.30
2019-03-19T08:53:13.410Z,2.00
2019-03-19T08:55:45.468Z,2.75
2019-03-19T08:58:17.174Z,2.35
2019-03-19T09:00:48.786Z,2.08
2019-03-19T09:03:20.279Z,1.75
2019-03-19T09:05:51.994Z,1.92
2019-03-19T09:08:24.546Z,2.17
2019-03-19T09:10:56.175Z,3.80
2019-03-19T09:13:28.593Z,2.25
2019-03-19T09:16:00.611Z,1.82
2019-03-19T09:18:32.311Z,1.77
2019-03-19T09:21:03.766Z,1.50
2019-03-19T09:23:35.592Z,1.87
2019-03-19T09:26:07.522Z,1.67
2019-03-19T09:28:39.255Z,1.75
2019-03-19T09:31:10.858Z,2.17
2019-03-19T09:33:42.844Z,1.77
2019-03-19T09:36:14.327Z,2.20
2019-03-19T09:38:46.064Z,2.45
2019-03-19T09:41:17.493Z,2.30
2019-03-19T09:43:49.396Z,2.47
2019-03-19T09:46:20.904Z,1.67
2019-03-19T09:48:52.657Z,2.25
2019-03-19T09:51:25.002Z,2.27
2019-03-19T09:53:57.041Z,2.05
2019-03-19T09:56:28.984Z,2.00
2019-03-19T09:59:00.570Z,1.92
2019-03-19T10:01:32.116Z,2.70
2019-03-19T10:04:03.749Z,2.55
2019-03-19T10:06:35.499Z,2.92
2019-03-19T10:09:09.010Z,1.92
2019-03-19T10:11:40.943Z,1.60
2019-03-19T10:14:12.551Z,1.60
2019-03-19T10:16:44.284Z,1.20
2019-03-19T10:19:15.963Z,1.67
2019-03-19T10:21:47.551Z,1.32
2019-03-19T10:24:19.525Z,1.60
2019-03-19T10:26:51.613Z,1.77
2019-03-19T10:29:23.198Z,1.57
2019-03-19T10:31:54.989Z,1.52
2019-03-19T10:34:26.579Z,1.52
2019-03-19T10:36:59.210Z,1.77
2019-03-19T10:39:30.946Z,1.40
2019-03-19T10:42:02.534Z,1.77
2019-03-19T10:44:35.162Z,2.95
2019-03-19T10:47:07.387Z,1.00
2019-03-19T10:49:38.987Z,1.40
2019-03-19T10:52:10.697Z,1.60
2019-03-19T10:54:42.346Z,1.52
2019-03-19T10:57:14.163Z,1.50
2019-03-19T10:59:49.323Z,1.30
2019-03-19T11:02:20.248Z,1.20
2019-03-19T11:04:52.189Z,1.15
2019-03-19T11:07:24.572Z,1.17
2019-03-19T11:09:56.202Z,1.10
2019-03-19T11:12:27.795Z,1.02
2019-03-19T11:14:59.458Z,1.30
2019-03-19T11:17:31.139Z,0.90
2019-03-19T11:20:03.071Z,0.72
2019-03-19T11:22:34.928Z,0.90
2019-03-19T11:25:08.411Z,1.20
2019-03-19T11:27:40.528Z,1.27
2019-03-19T11:30:15.462Z,1.20
2019-03-19T11:32:46.940Z,1.07
2019-03-19T11:35:18.832Z,1.10
2019-03-19T11:37:50.611Z,1.00
2019-03-19T11:40:22.501Z,1.20
2019-03-19T11:42:55.106Z,2.20
2019-03-19T11:45:27.117Z,1.90
2019-03-19T11:47:58.792Z,1.70
2019-03-19T11:50:33.144Z,1.20
2019-03-19T11:53:04.420Z,1.40
2019-03-19T11:55:36.088Z,1.62
2019-03-19T11:58:07.531Z,1.40
2019-03-19T12:00:40.746Z,2.02
2019-03-19T12:03:16.108Z,1.52
2019-03-19T12:05:45.606Z,1.77
2019-03-19T12:08:17.323Z,1.27
2019-03-19T12:10:48.934Z,1.65
2019-03-19T12:13:20.294Z,1.30
2019-03-19T12:15:51.825Z,2.33
2019-03-19T12:18:23.178Z,1.47
2019-03-19T12:20:54.808Z,1.90
2019-03-19T12:23:26.441Z,2.12
2019-03-19T12:25:58.036Z,1.80
2019-03-19T12:28:39.351Z,1.85
2019-03-19T12:31:03.186Z,1.60
2019-03-19T12:33:40.788Z,1.47
2019-03-19T12:36:08.250Z,2.00
2019-03-19T12:38:40.041Z,1.77
2019-03-19T12:41:11.595Z,1.57
2019-03-19T12:43:43.492Z,1.20
2019-03-19T12:46:15.133Z,1.20
2019-03-19T12:48:46.543Z,1.50
2019-03-19T12:51:18.147Z,1.70
2019-03-19T12:53:50.189Z,1.85
2019-03-19T12:56:21.709Z,2.08
2019-03-19T12:58:53.353Z,1.77
2019-03-19T13:01:25.112Z,1.70
2019-03-19T13:03:56.866Z,1.40
2019-03-19T13:06:28.473Z,2.05
2019-03-19T13:09:00.000Z,1.30
2019-03-19T13:11:31.704Z,1.60
2019-03-19T13:14:03.109Z,0.60
2019-03-19T13:16:34.632Z,0.90
2019-03-19T13:19:06.214Z,1.02
2019-03-19T13:21:37.985Z,0.75
2019-03-19T13:24:10.592Z,1.25
2019-03-19T13:26:42.391Z,1.32
2019-03-19T13:29:13.928Z,1.25
2019-03-19T13:31:45.705Z,1.80
2019-03-19T13:34:17.334Z,1.72
2019-03-19T13:36:49.110Z,1.55
2019-03-19T13:39:20.965Z,1.15
2019-03-19T13:41:52.410Z,1.10
2019-03-19T13:44:24.279Z,1.52
2019-03-19T13:46:55.648Z,1.92
2019-03-19T13:49:27.304Z,1.80
2019-03-19T13:51:59.029Z,2.37
2019-03-19T13:54:30.492Z,1.50
2019-03-19T13:57:03.459Z,1.72
2019-03-19T13:59:36.183Z,1.72
2019-03-19T14:02:07.961Z,1.90
2019-03-19T14:04:39.435Z,2.90
2019-03-19T14:07:11.200Z,2.83
2019-03-19T14:09:42.607Z,2.15
2019-03-19T14:12:16.154Z,2.90
2019-03-19T14:14:47.754Z,2.50
2019-03-19T14:17:19.345Z,3.00
2019-03-19T14:19:51.501Z,1.42
2019-03-19T14:22:23.222Z,1.70
2019-03-19T14:24:55.580Z,2.05
2019-03-19T14:27:27.693Z,1.90
2019-03-19T14:30:01.218Z,2.95
2019-03-19T14:32:32.728Z,2.58
2019-03-19T14:35:05.005Z,3.27
2019-03-19T14:37:37.159Z,2.08
2019-03-19T14:40:10.266Z,2.25
2019-03-19T14:42:41.857Z,1.80
2019-03-19T14:45:14.610Z,2.08
2019-03-19T14:47:47.273Z,1.95
2019-03-19T14:50:18.818Z,2.15
2019-03-19T14:52:50.624Z,1.70
2019-03-19T14:55:22.624Z,1.37
2019-03-19T14:57:54.485Z,1.27
2019-03-19T15:00:25.871Z,1.62
2019-03-19T15:02:57.155Z,1.40
2019-03-19T15:05:28.817Z,0.98
2019-03-19T15:08:00.341Z,2.17
2019-03-19T15:10:32.080Z,1.40
2019-03-19T15:13:04.102Z,1.75
2019-03-19T15:15:35.830Z,1.80
2019-03-19T15:18:07.891Z,1.77
2019-03-19T15:20:39.214Z,1.67
2019-03-19T15:23:11.507Z,1.80
2019-03-19T15:25:43.132Z,2.25
2019-03-19T15:28:15.997Z,2.20
2019-03-19T15:30:47.880Z,2.35
2019-03-19T15:33:19.415Z,2.20
2019-03-19T15:35:50.906Z,2.40
2019-03-19T15:38:22.650Z,2.92
2019-03-19T15:40:54.383Z,2.37
2019-03-19T15:43:26.173Z,2.20
2019-03-19T15:45:57.771Z,1.85
2019-03-19T15:48:29.395Z,1.87
2019-03-19T15:51:01.169Z,2.52
2019-03-19T15:53:33.043Z,2.55
2019-03-19T15:56:04.452Z,1.65
2019-03-19T15:58:35.976Z,2.17
2019-03-19T16:01:07.470Z,9.80
2019-03-19T16:03:38.975Z,6.17
2019-03-19T16:06:10.682Z,6.65
2019-03-19T16:08:42.244Z,5.00
2019-03-19T16:11:13.625Z,1.52
2019-03-19T16:13:45.212Z,1.85
2019-03-19T16:16:17.399Z,2.10
2019-03-19T16:18:49.128Z,1.77
2019-03-19T16:21:22.170Z,3.05
2019-03-19T16:23:53.818Z,2.90
2019-03-19T16:26:26.381Z,2.95
2019-03-19T16:28:57.818Z,2.25
2019-03-19T16:31:29.137Z,1.67
2019-03-19T16:34:01.142Z,2.50
2019-03-19T16:36:32.852Z,2.22
2019-03-19T16:39:05.980Z,3.15
2019-03-19T16:41:39.075Z,3.33
2019-03-19T16:44:11.659Z,3.10
2019-03-19T16:46:43.334Z,2.52
2019-03-19T16:49:14.950Z,2.72
2019-03-19T16:51:46.669Z,3.15
2019-03-19T16:54:19.454Z,2.17
2019-03-19T16:56:51.291Z,2.45
2019-03-19T16:59:22.838Z,2.50
2019-03-19T17:02:01.700Z,3.90
2019-03-19T17:04:27.771Z,3.22
2019-03-19T17:06:59.612Z,3.25
2019-03-19T17:09:31.175Z,3.90
2019-03-19T17:12:03.212Z,4.62
2019-03-19T17:14:34.767Z,4.40
2019-03-19T17:17:06.431Z,10.58
2019-03-19T17:19:37.906Z,6.50
2019-03-19T17:22:09.593Z,3.62
2019-03-19T17:24:41.208Z,4.42
2019-03-19T17:27:12.875Z,3.58
2019-03-19T17:29:44.513Z,2.90
2019-03-19T17:32:16.204Z,4.70
2019-03-19T17:34:48.366Z,4.20
2019-03-19T17:37:20.492Z,3.60
2019-03-19T17:39:51.973Z,3.02
2019-03-19T17:42:23.532Z,3.00
2019-03-19T17:44:56.399Z,3.35
2019-03-19T17:47:28.060Z,3.65
2019-03-19T17:49:59.476Z,3.50
2019-03-19T17:52:30.985Z,4.45
2019-03-19T17:55:02.568Z,3.65
2019-03-19T17:57:35.435Z,4.20
2019-03-19T18:00:08.317Z,4.67
2019-03-19T18:02:39.910Z,4.80
2019-03-19T18:05:11.478Z,4.92
2019-03-19T18:07:43.278Z,4.03
2019-03-19T18:10:15.242Z,3.95
2019-03-19T18:12:46.729Z,4.30
2019-03-19T18:15:18.321Z,4.30
2019-03-19T18:17:49.999Z,4.17
2019-03-19T18:20:21.615Z,4.33
2019-03-19T18:22:53.383Z,5.72
2019-03-19T18:25:25.005Z,4.67
2019-03-19T18:27:56.885Z,4.67
2019-03-19T18:30:28.371Z,7.00
2019-03-19T18:35:30.220Z,6.37
2019-03-19T18:38:01.913Z,6.55
2019-03-19T18:40:33.444Z,9.23
2019-03-19T18:43:05.344Z,9.03
2019-03-19T18:45:36.649Z,7.83
2019-03-19T18:48:08.119Z,7.45
2019-03-19T18:50:39.765Z,6.92
2019-03-19T18:53:11.397Z,9.38
2019-03-19T18:55:43.001Z,15.72
2019-03-19T18:58:14.733Z,16.73
2019-03-19T19:00:46.462Z,14.00
2019-03-19T19:03:18.171Z,13.68
2019-03-19T19:05:49.851Z,12.43
2019-03-19T19:08:21.438Z,19.42
2019-03-19T19:10:52.945Z,15.08
2019-03-19T19:13:24.770Z,9.63
2019-03-19T19:41:01.880Z,6.92
2019-03-19T19:43:33.409Z,7.10
2019-03-19T19:46:05.519Z,7.30
2019-03-19T19:48:37.158Z,6.97
2019-03-19T19:51:08.606Z,8.30
2019-03-19T19:53:40.344Z,8.93
2019-03-19T19:56:11.899Z,9.90
2019-03-19T19:58:43.746Z,10.58
2019-03-19T20:01:15.138Z,10.00
2019-03-19T20:03:46.435Z,10.78
2019-03-19T20:06:17.883Z,9.83
2019-03-19T20:08:49.352Z,12.15
2019-03-19T20:11:20.822Z,10.15
2019-03-19T20:13:52.574Z,9.88
2019-03-19T20:16:23.964Z,12.45
2019-03-19T20:18:55.527Z,11.33
2019-03-19T20:21:27.257Z,10.88
2019-03-19T20:23:59.850Z,10.88
2019-03-19T20:26:31.491Z,10.80
2019-03-19T20:29:04.112Z,12.23
2019-03-19T20:31:36.898Z,10.88
2019-03-19T20:34:08.589Z,9.63
2019-03-19T20:36:40.836Z,11.15
2019-03-19T20:39:12.580Z,9.50
2019-03-19T20:41:44.548Z,7.42
2019-03-19T20:44:16.252Z,10.50
2019-03-19T20:46:47.644Z,9.78
2019-03-19T20:49:19.325Z,9.38
2019-03-19T20:51:51.029Z,8.88
2019-03-19T20:54:22.911Z,9.95
2019-03-19T20:56:54.415Z,10.00
2019-03-19T20:59:26.049Z,10.18
2019-03-19T21:01:57.529Z,9.90
2019-03-19T21:04:31.638Z,10.03
2019-03-19T21:07:02.923Z,10.75
2019-03-19T21:09:34.539Z,11.20
2019-03-19T21:12:06.239Z,10.58
2019-03-19T21:14:38.851Z,11.08
2019-03-19T21:17:10.535Z,9.40
2019-03-19T21:19:42.150Z,10.50
2019-03-19T21:22:13.834Z,12.65
2019-03-19T21:24:45.414Z,10.88
2019-03-19T21:27:17.405Z,9.85
2019-03-19T21:29:49.099Z,11.90
2019-03-19T21:32:20.600Z,10.88
2019-03-19T21:34:54.612Z,11.10
2019-03-19T21:37:26.256Z,11.75
2019-03-19T21:39:58.544Z,11.57
2019-03-19T21:42:30.469Z,10.55
2019-03-19T21:45:01.900Z,11.88
2019-03-19T21:47:33.645Z,10.13
2019-03-19T21:50:07.167Z,12.47
2019-03-19T21:52:39.014Z,11.55
2019-03-19T21:55:11.066Z,12.90
2019-03-19T21:57:42.698Z,12.85
2019-03-19T22:00:16.671Z,12.30
2019-03-19T22:02:48.159Z,11.93
2019-03-19T22:05:20.008Z,12.30
2019-03-19T22:07:51.690Z,11.68
2019-03-19T22:10:23.490Z,11.60
2019-03-19T22:12:55.141Z,11.40
2019-03-19T22:15:26.514Z,9.23
2019-03-19T22:17:58.345Z,9.23
2019-03-19T22:20:29.962Z,9.78
2019-03-19T22:23:01.908Z,9.08
2019-03-19T22:25:33.558Z,9.23
2019-03-19T22:28:05.316Z,9.83
2019-03-19T22:30:37.261Z,9.68
2019-03-19T22:33:08.826Z,8.63
2019-03-19T22:35:40.374Z,8.28
2019-03-19T22:38:11.944Z,8.25
2019-03-19T22:40:43.605Z,7.97
2019-03-19T22:43:15.495Z,6.22
2019-03-19T22:45:47.091Z,7.85
2019-03-19T22:48:18.839Z,6.90
2019-03-19T22:50:50.433Z,7.47
2019-03-19T22:53:22.267Z,6.90
2019-03-19T22:55:54.033Z,6.72
2019-03-19T22:58:25.708Z,7.20
2019-03-19T23:00:57.739Z,6.30
2019-03-19T23:03:29.547Z,7.70
2019-03-19T23:06:00.909Z,7.20
2019-03-19T23:08:33.663Z,6.83
2019-03-19T23:11:05.404Z,7.78
2019-03-19T23:13:37.025Z,7.35
2019-03-19T23:16:08.606Z,8.65
2019-03-19T23:18:40.330Z,11.28
2019-03-19T23:21:12.206Z,12.80
2019-03-19T23:23:43.774Z,13.65
2019-03-19T23:28:45.999Z,11.55
2019-03-19T23:31:17.612Z,14.05
2019-03-19T23:33:49.177Z,12.90
2019-03-19T23:36:20.792Z,15.55
2019-03-19T23:38:52.704Z,17.70
2019-03-19T23:41:24.378Z,18.57
2019-03-19T23:43:55.934Z,14.40
2019-03-19T23:46:27.385Z,13.32
2019-03-19T23:49:00.959Z,12.88
2019-03-19T23:51:32.617Z,10.53
2019-03-19T23:54:04.547Z,12.15
2019-03-19T23:56:36.398Z,11.22
2019-03-19T23:59:07.859Z,9.53
